Time;durP1;ratioP1;P1;durP2;ratioP2;P2;SDS_P1;SDS_P2;PMS_P1;PMS_P2;Temp;Humidity;BMP_temperature;BMP_pressure;BME280_temperature;BME280_humidity;BME280_pressure;Samples;Min_cycle;Max_cycle;Signal;HPM_P1;HPM_P2
2022/10/13 00:00:42;;;;;;;8.85;6.53;;;;;;;;;;5050561;28;20132;-64
2022/10/13 00:03:08;;;;;;;7.68;6.28;;;;;;;;;;5046833;28;20025;-66
2022/10/13 00:05:34;;;;;;;8.93;6.28;;;;;;;;;;5049337;28;20476;-69
2022/10/13 00:08:00;;;;;;;10.77;6.32;;;;;;;;;;5050540;28;20107;-63
2022/10/13 00:10:26;;;;;;;10.95;6.90;;;;;;;;;;5051598;28;20028;-63
2022/10/13 00:12:51;;;;;;;10.38;6.20;;;;;;;;;;5051542;28;20048;-64
2022/10/13 00:15:17;;;;;;;9.93;6.93;;;;;;;;;;5050224;28;20094;-63
2022/10/13 00:17:43;;;;;;;11.95;6.40;;;;;;;;;;5050869;28;20362;-67
2022/10/13 00:20:10;;;;;;;11.77;6.60;;;;;;;;;;5055112;28;20043;-63
2022/10/13 00:22:35;;;;;;;7.97;6.45;;;;;;;;;;5055344;28;20188;-69
2022/10/13 00:25:01;;;;;;;10.75;6.50;;;;;;;;;;5055027;28;20381;-66
2022/10/13 00:27:26;;;;;;;10.45;6.15;;;;;;;;;;5054931;28;20036;-65
2022/10/13 00:29:51;;;;;;;8.50;6.20;;;;;;;;;;5055249;28;20025;-66
2022/10/13 00:32:17;;;;;;;8.43;6.10;;;;;;;;;;5054837;28;20029;-65
2022/10/13 00:34:42;;;;;;;9.20;6.78;;;;;;;;;;5054555;28;20021;-63
2022/10/13 00:37:08;;;;;;;9.63;6.53;;;;;;;;;;5054513;28;20025;-63
2022/10/13 00:39:36;;;;;;;8.43;6.05;;;;;;;;;;5055011;28;20364;-66
2022/10/13 00:42:02;;;;;;;8.60;6.03;;;;;;;;;;5055046;28;20025;-66
2022/10/13 00:45:04;;;;;;;8.98;6.30;;;;;;;;;;5054590;28;20033;-64
2022/10/13 00:47:50;;;;;;;10.55;6.95;;;;;;;;;;5054615;28;20458;-66
2022/10/13 00:50:23;;;;;;;10.10;6.47;;;;;;;;;;5054897;28;20021;-64
2022/10/13 00:52:51;;;;;;;9.13;5.88;;;;;;;;;;5054836;28;20025;-62
2022/10/13 00:55:20;;;;;;;8.95;6.07;;;;;;;;;;5054277;28;20501;-63
2022/10/13 00:57:53;;;;;;;8.05;6.30;;;;;;;;;;5054719;28;20404;-63
2022/10/13 01:00:19;;;;;;;10.70;6.05;;;;;;;;;;5054706;28;20021;-63
2022/10/13 01:02:44;;;;;;;8.38;5.97;;;;;;;;;;5054407;28;20384;-63
2022/10/13 01:05:10;;;;;;;8.65;5.95;;;;;;;;;;5054586;28;20408;-64
2022/10/13 01:07:35;;;;;;;11.60;6.20;;;;;;;;;;5054299;28;20021;-63
2022/10/13 01:10:01;;;;;;;10.20;6.38;;;;;;;;;;5054305;28;20025;-64
2022/10/13 01:12:45;;;;;;;9.40;6.00;;;;;;;;;;5054306;28;20064;-65
2022/10/13 01:15:21;;;;;;;10.63;6.43;;;;;;;;;;5054399;28;20079;-63
2022/10/13 01:17:59;;;;;;;8.60;6.03;;;;;;;;;;5054432;28;20550;-63
2022/10/13 01:20:52;;;;;;;8.02;5.97;;;;;;;;;;5054115;28;20025;-64
2022/10/13 01:23:51;;;;;;;10.05;6.88;;;;;;;;;;5054124;28;20028;-69
2022/10/13 01:26:52;;;;;;;9.23;5.90;;;;;;;;;;5054257;28;20032;-63
2022/10/13 01:29:48;;;;;;;8.00;5.35;;;;;;;;;;5048979;28;20119;-66
2022/10/13 01:32:34;;;;;;;10.52;6.03;;;;;;;;;;5054172;28;20037;-66
2022/10/13 01:35:27;;;;;;;7.75;5.88;;;;;;;;;;5053708;28;20025;-65
2022/10/13 01:38:14;;;;;;;7.90;6.18;;;;;;;;;;5053806;28;20091;-62
2022/10/13 01:40:46;;;;;;;7.25;5.97;;;;;;;;;;5053701;28;20043;-62
2022/10/13 01:43:21;;;;;;;8.80;5.88;;;;;;;;;;5053840;28;20032;-65
2022/10/13 01:45:51;;;;;;;7.85;5.65;;;;;;;;;;5052580;28;20430;-71
2022/10/13 01:48:18;;;;;;;9.88;5.80;;;;;;;;;;5053541;28;20024;-63
2022/10/13 01:50:45;;;;;;;7.68;5.47;;;;;;;;;;5053590;28;20028;-62
2022/10/13 01:53:13;;;;;;;8.23;5.78;;;;;;;;;;5053312;28;20477;-64
2022/10/13 01:55:57;;;;;;;8.18;5.90;;;;;;;;;;5053636;28;20043;-64
2022/10/13 01:58:25;;;;;;;7.82;6.15;;;;;;;;;;5053205;28;20594;-63
2022/10/13 02:01:13;;;;;;;9.25;6.45;;;;;;;;;;5053512;28;20035;-69
2022/10/13 02:04:03;;;;;;;9.65;6.15;;;;;;;;;;5053169;28;20472;-62
2022/10/13 02:06:50;;;;;;;6.85;5.53;;;;;;;;;;5053274;28;20025;-65
2022/10/13 02:09:53;;;;;;;7.32;6.03;;;;;;;;;;5053506;28;20029;-63
2022/10/13 02:12:33;;;;;;;7.03;5.60;;;;;;;;;;5053006;28;20500;-63
2022/10/13 02:15:00;;;;;;;10.30;6.45;;;;;;;;;;5052942;28;20033;-66
2022/10/13 02:17:27;;;;;;;9.10;6.05;;;;;;;;;;5052964;28;20025;-64
2022/10/13 02:19:55;;;;;;;8.90;5.93;;;;;;;;;;5053116;28;20043;-63
2022/10/13 02:22:25;;;;;;;9.45;5.97;;;;;;;;;;5053041;28;20039;-64
2022/10/13 02:24:51;;;;;;;8.02;6.22;;;;;;;;;;5053157;28;20025;-67
2022/10/13 02:27:16;;;;;;;8.05;6.20;;;;;;;;;;5052701;28;20528;-69
2022/10/13 02:29:54;;;;;;;7.60;5.90;;;;;;;;;;5052762;28;20041;-67
2022/10/13 02:32:20;;;;;;;7.72;6.00;;;;;;;;;;5052643;28;20017;-62
2022/10/13 02:34:46;;;;;;;10.50;5.82;;;;;;;;;;5052596;28;20473;-67
2022/10/13 02:37:11;;;;;;;7.90;5.63;;;;;;;;;;5052661;28;20116;-67
2022/10/13 02:39:37;;;;;;;7.75;6.22;;;;;;;;;;5051240;28;20031;-62
2022/10/13 02:42:03;;;;;;;7.35;5.82;;;;;;;;;;5052387;28;20029;-62
2022/10/13 02:44:28;;;;;;;7.57;5.88;;;;;;;;;;5052825;28;20508;-63
2022/10/13 02:46:53;;;;;;;9.00;6.25;;;;;;;;;;5052488;28;20033;-70
2022/10/13 02:49:19;;;;;;;10.77;5.95;;;;;;;;;;5052621;28;20032;-65
2022/10/13 02:51:44;;;;;;;7.47;5.70;;;;;;;;;;5052478;28;20032;-63
2022/10/13 02:54:09;;;;;;;10.50;6.15;;;;;;;;;;5052307;28;20730;-65
2022/10/13 02:56:35;;;;;;;9.35;5.93;;;;;;;;;;5052409;28;20044;-64
2022/10/13 02:59:00;;;;;;;8.90;5.70;;;;;;;;;;5052670;28;20017;-69
2022/10/13 03:01:26;;;;;;;6.78;5.60;;;;;;;;;;5052370;28;20031;-69
2022/10/13 03:03:52;;;;;;;10.35;6.68;;;;;;;;;;5052619;28;20083;-63
2022/10/13 03:06:17;;;;;;;7.38;5.30;;;;;;;;;;5052563;28;20013;-63
2022/10/13 03:08:43;;;;;;;8.80;5.45;;;;;;;;;;5052345;28;20025;-63
2022/10/13 03:11:08;;;;;;;7.57;5.47;;;;;;;;;;5052241;28;20025;-64
2022/10/13 03:13:36;;;;;;;8.10;5.90;;;;;;;;;;5052339;28;20021;-62
2022/10/13 03:16:02;;;;;;;8.68;6.25;;;;;;;;;;5052133;28;20032;-66
2022/10/13 03:18:28;;;;;;;7.30;5.53;;;;;;;;;;5052457;28;20033;-69
2022/10/13 03:20:58;;;;;;;7.93;5.88;;;;;;;;;;5052389;28;20033;-64
2022/10/13 03:23:24;;;;;;;;;;;;;;;;;;5052619;28;20032;-68
2022/10/13 03:25:49;;;;;;;10.80;5.80;;;;;;;;;;5052374;28;19913;-64
2022/10/13 03:28:14;;;;;;;9.63;6.10;;;;;;;;;;5052459;28;20033;-63
2022/10/13 03:30:40;;;;;;;6.82;5.90;;;;;;;;;;5052369;28;20021;-69
2022/10/13 03:33:05;;;;;;;6.80;5.57;;;;;;;;;;5052073;28;20056;-62
2022/10/13 03:35:31;;;;;;;7.63;6.22;;;;;;;;;;5051953;28;20024;-65
2022/10/13 03:37:56;;;;;;;8.90;6.15;;;;;;;;;;5051973;28;20044;-62
2022/10/13 03:40:21;;;;;;;9.20;6.10;;;;;;;;;;5051950;28;20021;-62
2022/10/13 03:42:47;;;;;;;7.65;5.93;;;;;;;;;;5052176;28;20032;-64
2022/10/13 03:45:12;;;;;;;7.80;5.95;;;;;;;;;;5051877;28;20026;-63
2022/10/13 03:47:38;;;;;;;8.30;6.05;;;;;;;;;;5052128;28;20112;-69
2022/10/13 03:50:04;;;;;;;9.75;5.97;;;;;;;;;;5052174;28;20107;-63
2022/10/13 03:52:30;;;;;;;10.57;5.78;;;;;;;;;;5051908;28;20025;-62
2022/10/13 03:54:55;;;;;;;7.38;6.10;;;;;;;;;;5055484;28;20056;-63
2022/10/13 03:57:20;;;;;;;6.20;5.45;;;;;;;;;;5055837;28;20089;-67
2022/10/13 03:59:46;;;;;;;6.43;5.65;;;;;;;;;;5055568;28;20037;-65
2022/10/13 04:02:11;;;;;;;9.05;6.22;;;;;;;;;;5055512;28;20057;-68
2022/10/13 04:04:37;;;;;;;6.78;5.55;;;;;;;;;;5055749;28;20037;-69
2022/10/13 04:07:03;;;;;;;6.55;5.60;;;;;;;;;;5055451;28;20063;-69
2022/10/13 04:09:28;;;;;;;6.47;5.30;;;;;;;;;;5055721;28;20154;-69
2022/10/13 04:11:54;;;;;;;7.35;5.20;;;;;;;;;;5055354;28;20381;-69
2022/10/13 04:14:19;;;;;;;7.00;5.85;;;;;;;;;;5055283;28;20025;-67
2022/10/13 04:16:45;;;;;;;6.50;5.60;;;;;;;;;;5055271;28;20028;-68
2022/10/13 04:19:13;;;;;;;10.68;6.22;;;;;;;;;;5055191;28;20021;-67
2022/10/13 04:21:39;;;;;;;6.60;5.90;;;;;;;;;;5055258;28;20068;-66
2022/10/13 04:24:05;;;;;;;10.98;5.80;;;;;;;;;;5055452;28;20430;-64
2022/10/13 04:26:35;;;;;;;7.80;5.53;;;;;;;;;;5054991;28;20048;-65
2022/10/13 04:29:03;;;;;;;7.10;5.80;;;;;;;;;;5055348;28;20029;-63
2022/10/13 04:31:30;;;;;;;9.52;6.47;;;;;;;;;;5055380;28;20044;-64
2022/10/13 04:33:56;;;;;;;7.53;6.05;;;;;;;;;;5053626;28;20033;-62
2022/10/13 04:36:23;;;;;;;9.55;5.60;;;;;;;;;;5056026;28;20540;-73
2022/10/13 04:38:48;;;;;;;7.30;5.80;;;;;;;;;;5062945;28;20033;-71
2022/10/13 04:41:15;;;;;;;7.90;5.85;;;;;;;;;;5063369;28;20028;-70
2022/10/13 04:43:41;;;;;;;7.82;5.45;;;;;;;;;;5064028;28;20378;-73
2022/10/13 04:46:13;;;;;;;8.32;6.10;;;;;;;;;;5058638;28;20040;-74
2022/10/13 04:48:39;;;;;;;8.90;5.90;;;;;;;;;;5059900;28;20025;-75
2022/10/13 04:51:07;;;;;;;6.20;5.57;;;;;;;;;;5058785;28;20028;-77
2022/10/13 04:53:33;;;;;;;7.60;6.03;;;;;;;;;;5059583;28;20033;-75
2022/10/13 04:56:01;;;;;;;10.85;6.07;;;;;;;;;;5059869;28;20465;-75
2022/10/13 04:58:27;;;;;;;10.23;5.95;;;;;;;;;;5056719;28;20120;-73
2022/10/13 05:00:52;;;;;;;7.28;5.60;;;;;;;;;;5054389;28;20064;-74
2022/10/13 05:03:18;;;;;;;9.75;5.93;;;;;;;;;;5054123;28;20035;-64
2022/10/13 05:05:43;;;;;;;11.18;7.05;;;;;;;;;;5054234;28;20044;-73
2022/10/13 05:08:08;;;;;;;8.52;5.90;;;;;;;;;;5054797;28;20025;-71
2022/10/13 05:10:34;;;;;;;8.88;5.72;;;;;;;;;;5054190;28;20117;-73
2022/10/13 05:12:59;;;;;;;8.05;6.28;;;;;;;;;;5056604;28;20036;-69
2022/10/13 05:15:25;;;;;;;9.15;6.22;;;;;;;;;;5063347;28;20037;-75
2022/10/13 05:17:50;;;;;;;8.63;6.28;;;;;;;;;;5056772;28;20028;-72
2022/10/13 05:20:16;;;;;;;8.38;6.30;;;;;;;;;;5052798;28;20128;-65
2022/10/13 05:22:42;;;;;;;9.48;5.93;;;;;;;;;;5052864;28;20108;-67
2022/10/13 05:25:07;;;;;;;6.78;6.00;;;;;;;;;;5053255;28;20039;-72
2022/10/13 05:27:33;;;;;;;9.48;5.90;;;;;;;;;;5053131;28;20490;-74
2022/10/13 05:29:58;;;;;;;10.70;6.22;;;;;;;;;;5053381;28;20021;-73
2022/10/13 05:32:23;;;;;;;9.15;6.63;;;;;;;;;;5053942;28;20028;-65
2022/10/13 05:34:49;;;;;;;8.90;6.20;;;;;;;;;;5054874;28;20044;-75
2022/10/13 05:37:16;;;;;;;9.13;6.70;;;;;;;;;;5054169;28;20083;-75
2022/10/13 05:39:42;;;;;;;9.13;6.30;;;;;;;;;;5053706;28;20029;-75
2022/10/13 05:42:07;;;;;;;8.15;5.80;;;;;;;;;;5054160;28;20385;-69
2022/10/13 05:44:35;;;;;;;10.32;6.53;;;;;;;;;;5053718;28;20029;-75
2022/10/13 05:47:00;;;;;;;9.00;6.70;;;;;;;;;;5055344;28;20025;-73
2022/10/13 05:49:25;;;;;;;9.98;6.10;;;;;;;;;;5055126;28;20025;-75
2022/10/13 05:51:56;;;;;;;9.88;6.35;;;;;;;;;;5036829;28;20373;-71
2022/10/13 05:54:29;;;;;;;6.18;5.57;;;;;;;;;;5053165;28;20045;-69
2022/10/13 05:57:04;;;;;;;7.35;5.78;;;;;;;;;;5055079;28;20040;-68
2022/10/13 05:59:34;;;;;;;8.98;5.90;;;;;;;;;;5054824;28;20091;-71
2022/10/13 06:02:01;;;;;;;9.65;6.05;;;;;;;;;;5054644;28;20078;-66
2022/10/13 06:04:33;;;;;;;8.82;6.45;;;;;;;;;;5055137;28;20035;-70
2022/10/13 06:06:58;;;;;;;9.88;6.43;;;;;;;;;;5055787;28;20172;-72
2022/10/13 06:09:27;;;;;;;11.07;6.50;;;;;;;;;;5038372;28;20230;-75
2022/10/13 06:11:52;;;;;;;9.45;6.60;;;;;;;;;;5055359;28;20025;-66
2022/10/13 06:14:18;;;;;;;9.48;6.30;;;;;;;;;;5054283;28;20028;-72
2022/10/13 06:16:43;;;;;;;8.38;6.93;;;;;;;;;;5053899;28;20025;-66
2022/10/13 06:19:08;;;;;;;10.45;6.10;;;;;;;;;;5054160;28;20049;-71
2022/10/13 06:21:34;;;;;;;7.85;6.63;;;;;;;;;;5054034;28;20025;-68
2022/10/13 06:24:00;;;;;;;9.13;7.07;;;;;;;;;;5054883;28;20389;-74
2022/10/13 06:26:25;;;;;;;9.90;6.60;;;;;;;;;;5055315;28;20416;-70
2022/10/13 06:28:51;;;;;;;9.20;6.70;;;;;;;;;;5052330;28;20029;-71
2022/10/13 06:31:16;;;;;;;10.02;6.60;;;;;;;;;;5054680;28;20028;-70
2022/10/13 06:33:41;;;;;;;10.05;6.65;;;;;;;;;;5054332;28;20035;-65
2022/10/13 06:36:07;;;;;;;9.48;6.32;;;;;;;;;;5054237;28;20033;-71
2022/10/13 06:38:33;;;;;;;8.13;6.40;;;;;;;;;;5054228;28;20469;-71
2022/10/13 06:41:03;;;;;;;10.00;6.70;;;;;;;;;;5054843;28;20020;-70
2022/10/13 06:43:29;;;;;;;9.88;6.57;;;;;;;;;;5054019;28;20028;-72
2022/10/13 06:45:59;;;;;;;8.05;6.10;;;;;;;;;;5054717;28;20071;-74
2022/10/13 06:48:25;;;;;;;8.68;6.45;;;;;;;;;;5055280;28;20025;-66
2022/10/13 06:50:51;;;;;;;9.02;6.53;;;;;;;;;;5054455;28;20025;-72
2022/10/13 06:53:16;;;;;;;8.93;6.28;;;;;;;;;;5053823;28;20020;-66
2022/10/13 06:55:42;;;;;;;8.63;6.50;;;;;;;;;;5053144;28;20056;-66
2022/10/13 06:58:09;;;;;;;7.10;6.07;;;;;;;;;;5054173;28;20033;-72
2022/10/13 07:00:35;;;;;;;7.25;5.75;;;;;;;;;;5054178;28;20070;-66
2022/10/13 07:03:00;;;;;;;7.55;5.60;;;;;;;;;;5052284;28;20099;-69
2022/10/13 07:05:25;;;;;;;9.88;5.75;;;;;;;;;;5052476;28;20036;-65
2022/10/13 07:07:52;;;;;;;7.20;5.75;;;;;;;;;;5052140;28;20152;-69
2022/10/13 07:10:18;;;;;;;8.55;5.97;;;;;;;;;;5052424;28;20032;-73
2022/10/13 07:12:43;;;;;;;8.50;6.03;;;;;;;;;;5052168;28;20033;-69
2022/10/13 07:15:09;;;;;;;6.93;5.55;;;;;;;;;;5052368;28;20029;-65
2022/10/13 07:17:35;;;;;;;9.82;6.25;;;;;;;;;;5052086;28;20358;-65
2022/10/13 07:20:02;;;;;;;9.43;6.55;;;;;;;;;;5052371;28;20021;-71
2022/10/13 07:22:28;;;;;;;8.05;6.15;;;;;;;;;;5052095;28;20499;-68
2022/10/13 07:24:53;;;;;;;10.48;5.93;;;;;;;;;;5052316;28;20151;-71
2022/10/13 07:27:19;;;;;;;7.35;5.75;;;;;;;;;;5053879;28;20086;-70
2022/10/13 07:29:44;;;;;;;7.80;5.70;;;;;;;;;;5056140;28;20480;-65
2022/10/13 07:32:10;;;;;;;8.35;5.97;;;;;;;;;;5055742;28;20064;-67
2022/10/13 07:34:35;;;;;;;7.00;5.63;;;;;;;;;;5056459;28;20036;-72
2022/10/13 07:37:01;;;;;;;10.13;5.63;;;;;;;;;;5056223;28;20526;-69
2022/10/13 07:39:26;;;;;;;11.27;5.80;;;;;;;;;;5055799;28;20087;-66
2022/10/13 07:41:52;;;;;;;8.00;6.28;;;;;;;;;;5056107;28;20021;-70
2022/10/13 07:44:17;;;;;;;9.32;5.85;;;;;;;;;;5055778;28;20045;-67
2022/10/13 07:46:43;;;;;;;8.32;5.82;;;;;;;;;;5056070;28;20112;-70
2022/10/13 07:49:08;;;;;;;7.47;6.00;;;;;;;;;;5055730;28;20021;-72
2022/10/13 07:51:33;;;;;;;6.93;5.57;;;;;;;;;;5055977;28;20314;-69
2022/10/13 07:53:59;;;;;;;7.78;6.10;;;;;;;;;;5055455;28;20404;-70
2022/10/13 07:56:24;;;;;;;7.95;5.40;;;;;;;;;;5055562;28;20032;-69
2022/10/13 07:58:50;;;;;;;9.52;5.78;;;;;;;;;;5055559;28;20035;-67
2022/10/13 08:01:16;;;;;;;12.20;5.80;;;;;;;;;;5055830;28;20102;-72
2022/10/13 08:03:42;;;;;;;10.63;5.65;;;;;;;;;;5055638;28;20523;-68
2022/10/13 08:06:08;;;;;;;8.55;5.82;;;;;;;;;;5055396;28;20025;-66
2022/10/13 08:08:34;;;;;;;10.73;6.35;;;;;;;;;;5055667;28;20033;-71
2022/10/13 08:11:04;;;;;;;8.32;5.78;;;;;;;;;;5055431;28;20032;-67
2022/10/13 08:13:29;;;;;;;9.60;5.72;;;;;;;;;;5055636;28;20028;-71
2022/10/13 08:15:59;;;;;;;8.35;5.82;;;;;;;;;;5055214;28;20423;-71
2022/10/13 08:18:24;;;;;;;7.47;5.95;;;;;;;;;;5055252;28;20412;-72
2022/10/13 08:20:50;;;;;;;11.90;5.75;;;;;;;;;;5055418;28;20043;-68
2022/10/13 08:23:15;;;;;;;9.60;5.50;;;;;;;;;;5053860;28;20107;-74
2022/10/13 08:25:42;;;;;;;7.10;5.45;;;;;;;;;;5055042;28;20495;-65
2022/10/13 08:28:19;;;;;;;9.02;5.55;;;;;;;;;;5055363;28;20040;-67
2022/10/13 08:30:45;;;;;;;12.00;5.70;;;;;;;;;;5054967;28;20036;-72
2022/10/13 08:33:10;;;;;;;9.60;5.65;;;;;;;;;;5055014;28;20029;-66
2022/10/13 08:35:36;;;;;;;9.77;5.95;;;;;;;;;;5054029;28;20627;-70
2022/10/13 08:38:01;;;;;;;8.20;5.35;;;;;;;;;;5051225;28;20086;-77
2022/10/13 08:40:27;;;;;;;10.57;5.20;;;;;;;;;;5052166;28;20059;-76
2022/10/13 08:42:52;;;;;;;7.63;5.63;;;;;;;;;;5053904;28;20118;-75
2022/10/13 08:45:25;;;;;;;7.10;4.97;;;;;;;;;;5054903;28;20481;-69
2022/10/13 08:48:01;;;;;;;8.55;5.10;;;;;;;;;;5054685;28;20116;-74
2022/10/13 08:50:30;;;;;;;8.35;5.20;;;;;;;;;;5052520;28;20362;-76
2022/10/13 08:53:09;;;;;;;7.43;5.03;;;;;;;;;;5050835;28;20029;-75
2022/10/13 08:55:51;;;;;;;8.43;5.00;;;;;;;;;;5049014;28;20431;-77
2022/10/13 08:58:23;;;;;;;8.48;5.20;;;;;;;;;;5054679;28;20033;-76
2022/10/13 09:01:20;;;;;;;10.52;5.28;;;;;;;;;;5054432;28;20025;-72
2022/10/13 09:03:48;;;;;;;6.35;5.00;;;;;;;;;;5048527;28;20029;-71
2022/10/13 09:06:20;;;;;;;10.95;5.70;;;;;;;;;;5052789;28;20062;-72
2022/10/13 09:09:04;;;;;;;14.80;5.00;;;;;;;;;;5050213;28;20033;-66
2022/10/13 09:11:34;;;;;;;5.50;4.53;;;;;;;;;;5041276;28;20033;-73
2022/10/13 09:14:17;;;;;;;7.13;4.78;;;;;;;;;;5032761;28;20033;-66
2022/10/13 09:16:44;;;;;;;7.25;4.40;;;;;;;;;;5032920;28;20029;-68
2022/10/13 09:19:33;;;;;;;8.77;4.57;;;;;;;;;;5050638;28;20558;-71
2022/10/13 09:22:23;;;;;;;6.95;4.35;;;;;;;;;;5052518;28;20061;-65
2022/10/13 09:25:07;;;;;;;6.07;4.50;;;;;;;;;;5049150;28;20041;-71
2022/10/13 09:27:53;;;;;;;5.90;4.20;;;;;;;;;;5052603;28;20098;-70
2022/10/13 09:30:37;;;;;;;6.00;4.28;;;;;;;;;;5052170;28;20503;-67
2022/10/13 09:33:11;;;;;;;8.05;4.40;;;;;;;;;;5052300;28;20044;-70
2022/10/13 09:35:41;;;;;;;7.80;4.90;;;;;;;;;;5052100;28;20044;-69
2022/10/13 09:38:21;;;;;;;7.73;4.53;;;;;;;;;;5052185;28;20029;-66
2022/10/13 09:40:56;;;;;;;8.00;4.50;;;;;;;;;;5052002;28;20028;-68
2022/10/13 09:43:42;;;;;;;8.70;5.00;;;;;;;;;;5052331;28;20028;-67
2022/10/13 09:46:28;;;;;;;7.25;4.60;;;;;;;;;;5050166;28;20097;-68
2022/10/13 09:49:01;;;;;;;7.30;4.72;;;;;;;;;;5057821;28;20037;-71
2022/10/13 09:51:40;;;;;;;8.32;5.45;;;;;;;;;;5057661;28;20041;-74
2022/10/13 09:54:34;;;;;;;8.35;5.55;;;;;;;;;;5056936;28;20041;-72
2022/10/13 09:57:23;;;;;;;7.68;5.20;;;;;;;;;;5059340;28;20056;-74
2022/10/13 09:59:57;;;;;;;7.18;4.70;;;;;;;;;;5056936;28;20204;-68
2022/10/13 10:02:31;;;;;;;10.38;5.13;;;;;;;;;;5064907;28;20025;-76
2022/10/13 10:05:01;;;;;;;8.35;5.28;;;;;;;;;;5055625;28;20032;-74
2022/10/13 10:07:30;;;;;;;8.07;4.90;;;;;;;;;;5051760;28;20034;-69
2022/10/13 10:10:03;;;;;;;8.55;4.53;;;;;;;;;;5039565;28;20029;-74
2022/10/13 10:12:31;;;;;;;7.28;4.80;;;;;;;;;;5037517;28;20574;-69
2022/10/13 10:14:56;;;;;;;6.72;4.72;;;;;;;;;;5033683;28;20033;-66
2022/10/13 10:17:48;;;;;;;8.57;4.72;;;;;;;;;;5038512;28;20037;-74
2022/10/13 10:20:39;;;;;;;8.90;5.32;;;;;;;;;;5042677;28;20417;-73
2022/10/13 10:23:13;;;;;;;6.38;5.18;;;;;;;;;;5036789;28;20029;-74
2022/10/13 10:25:44;;;;;;;9.35;5.55;;;;;;;;;;5035106;28;20029;-74
2022/10/13 10:28:33;;;;;;;7.30;5.30;;;;;;;;;;5033143;28;20025;-77
2022/10/13 10:31:17;;;;;;;7.72;5.07;;;;;;;;;;5037321;28;20042;-75
2022/10/13 10:34:04;;;;;;;6.07;5.00;;;;;;;;;;5042646;28;20079;-71
2022/10/13 10:36:42;;;;;;;8.10;5.00;;;;;;;;;;5039944;28;20044;-75
2022/10/13 10:39:21;;;;;;;8.13;5.43;;;;;;;;;;5036933;28;20048;-79
2022/10/13 10:41:59;;;;;;;6.10;5.03;;;;;;;;;;5040205;28;20049;-74
2022/10/13 10:44:31;;;;;;;7.32;5.03;;;;;;;;;;5039534;28;20270;-77
2022/10/13 10:47:03;;;;;;;8.77;5.43;;;;;;;;;;5039366;28;20245;-77
2022/10/13 10:49:34;;;;;;;8.10;5.10;;;;;;;;;;5036388;28;20040;-80
2022/10/13 10:52:04;;;;;;;9.40;5.25;;;;;;;;;;5033837;28;20029;-65
2022/10/13 10:54:53;;;;;;;7.93;5.28;;;;;;;;;;5038009;28;20041;-77
2022/10/13 10:57:24;;;;;;;8.75;5.40;;;;;;;;;;5037253;28;20033;-65
2022/10/13 11:00:06;;;;;;;9.48;5.28;;;;;;;;;;5036818;28;20028;-73
2022/10/13 11:03:02;;;;;;;8.18;5.68;;;;;;;;;;5050637;28;20028;-76
2022/10/13 11:05:56;;;;;;;9.40;5.63;;;;;;;;;;5039206;28;20507;-75
2022/10/13 11:08:36;;;;;;;11.48;5.60;;;;;;;;;;5056111;28;20044;-75
2022/10/13 11:11:32;;;;;;;8.68;6.10;;;;;;;;;;5061895;28;20203;-77
2022/10/13 11:14:03;;;;;;;6.60;5.68;;;;;;;;;;5054306;28;20591;-74
2022/10/13 11:16:31;;;;;;;9.55;6.00;;;;;;;;;;5057545;28;20067;-65
2022/10/13 11:19:33;;;;;;;6.80;5.40;;;;;;;;;;5050867;28;20033;-67
2022/10/13 11:21:59;;;;;;;10.05;6.43;;;;;;;;;;5042616;28;20040;-68
2022/10/13 11:24:33;;;;;;;7.97;6.15;;;;;;;;;;5054775;28;20029;-71
2022/10/13 11:27:10;;;;;;;13.75;6.60;;;;;;;;;;5052078;28;20017;-71
2022/10/13 11:29:48;;;;;;;9.23;6.22;;;;;;;;;;5052126;28;20107;-67
2022/10/13 11:32:31;;;;;;;8.68;6.30;;;;;;;;;;5052185;28;20104;-74
2022/10/13 11:35:08;;;;;;;8.73;6.78;;;;;;;;;;5051957;28;20485;-65
2022/10/13 11:37:52;;;;;;;10.48;6.60;;;;;;;;;;5051910;28;20059;-70
2022/10/13 11:40:33;;;;;;;27.05;7.68;;;;;;;;;;5051931;28;20040;-63
2022/10/13 11:43:16;;;;;;;11.50;6.78;;;;;;;;;;5051819;28;20033;-70
2022/10/13 11:46:10;;;;;;;12.73;6.78;;;;;;;;;;5051900;28;20380;-74
2022/10/13 11:48:41;;;;;;;12.52;6.82;;;;;;;;;;5050856;28;20219;-73
2022/10/13 11:51:09;;;;;;;16.85;6.65;;;;;;;;;;5052187;28;20111;-74
2022/10/13 11:53:54;;;;;;;8.82;6.28;;;;;;;;;;5051855;28;20025;-74
2022/10/13 11:56:35;;;;;;;10.52;7.47;;;;;;;;;;5052110;28;20090;-70
2022/10/13 11:59:00;;;;;;;12.27;6.80;;;;;;;;;;5052343;28;20377;-73
2022/10/13 12:01:26;;;;;;;14.77;7.65;;;;;;;;;;5052452;28;20024;-73
2022/10/13 12:03:51;;;;;;;22.50;7.75;;;;;;;;;;5052327;28;20170;-74
2022/10/13 12:06:19;;;;;;;15.23;7.60;;;;;;;;;;5052135;28;20036;-73
2022/10/13 12:08:48;;;;;;;15.23;7.63;;;;;;;;;;5052538;28;20025;-72
2022/10/13 12:11:26;;;;;;;21.05;8.50;;;;;;;;;;5052233;28;20048;-67
2022/10/13 12:13:52;;;;;;;18.13;7.40;;;;;;;;;;5037784;28;20032;-73
2022/10/13 12:16:18;;;;;;;20.60;8.23;;;;;;;;;;5052178;28;20033;-73
2022/10/13 12:18:46;;;;;;;10.68;7.13;;;;;;;;;;5056645;28;20045;-67
2022/10/13 12:21:18;;;;;;;21.08;6.50;;;;;;;;;;5056943;28;20021;-72
2022/10/13 12:23:45;;;;;;;25.55;7.50;;;;;;;;;;5058392;28;20441;-73
2022/10/13 12:26:18;;;;;;;18.75;6.75;;;;;;;;;;5057927;28;20025;-66
2022/10/13 12:28:51;;;;;;;22.08;7.35;;;;;;;;;;5056681;28;20056;-62
2022/10/13 12:31:36;;;;;;;16.48;6.78;;;;;;;;;;5059601;28;20130;-74
2022/10/13 12:34:02;;;;;;;21.48;7.25;;;;;;;;;;5057505;28;20421;-72
2022/10/13 12:36:30;;;;;;;21.98;7.03;;;;;;;;;;5057941;28;20037;-72
2022/10/13 12:39:00;;;;;;;18.13;7.35;;;;;;;;;;5058758;28;20389;-74
2022/10/13 12:41:32;;;;;;;18.45;7.22;;;;;;;;;;5054793;28;20469;-72
2022/10/13 12:43:57;;;;;;;11.90;6.45;;;;;;;;;;5044551;28;20445;-62
2022/10/13 12:46:47;;;;;;;19.80;6.88;;;;;;;;;;5053141;28;20146;-70
2022/10/13 12:49:21;;;;;;;14.90;6.77;;;;;;;;;;5035985;28;20428;-74
2022/10/13 12:51:49;;;;;;;14.50;5.95;;;;;;;;;;5033373;28;20427;-73
2022/10/13 12:54:25;;;;;;;12.90;6.35;;;;;;;;;;5033065;28;20038;-63
2022/10/13 12:56:53;;;;;;;12.75;6.63;;;;;;;;;;5044990;28;20029;-70
2022/10/13 12:59:19;;;;;;;13.65;6.50;;;;;;;;;;5052986;28;20032;-75
2022/10/13 13:01:52;;;;;;;10.68;6.60;;;;;;;;;;5052989;28;20059;-66
2022/10/13 13:04:20;;;;;;;15.10;7.40;;;;;;;;;;5052971;28;20041;-62
2022/10/13 13:06:56;;;;;;;10.30;6.38;;;;;;;;;;5052758;28;20033;-62
2022/10/13 13:09:37;;;;;;;9.25;6.60;;;;;;;;;;5052995;28;20032;-70
2022/10/13 13:12:05;;;;;;;11.05;6.18;;;;;;;;;;5052907;28;20029;-62
2022/10/13 13:14:37;;;;;;;8.10;6.20;;;;;;;;;;5032604;28;20037;-70
2022/10/13 13:17:12;;;;;;;8.98;6.03;;;;;;;;;;5032889;28;20033;-63
2022/10/13 13:19:42;;;;;;;12.80;6.75;;;;;;;;;;5032511;28;20041;-71
2022/10/13 13:22:08;;;;;;;;;;;;;;;;;;5033416;28;20042;-62
2022/10/13 13:24:33;;;;;;;10.00;5.88;;;;;;;;;;5032189;28;20305;-66
2022/10/13 13:27:09;;;;;;;10.20;6.05;;;;;;;;;;5032793;28;20029;-72
2022/10/13 13:29:34;;;;;;;8.70;5.72;;;;;;;;;;5033305;28;20437;-63
2022/10/13 13:32:00;;;;;;;7.13;5.97;;;;;;;;;;5048639;28;20116;-63
2022/10/13 13:34:25;;;;;;;12.38;6.55;;;;;;;;;;5052849;28;20032;-73
2022/10/13 13:36:50;;;;;;;10.90;6.82;;;;;;;;;;5052229;28;20123;-74
2022/10/13 13:39:17;;;;;;;11.38;6.32;;;;;;;;;;5052220;28;20033;-63
2022/10/13 13:41:42;;;;;;;10.80;6.05;;;;;;;;;;5052288;28;20064;-75
2022/10/13 13:44:08;;;;;;;8.98;5.80;;;;;;;;;;5050938;28;20060;-62
2022/10/13 13:46:34;;;;;;;8.50;6.28;;;;;;;;;;5055473;28;20029;-69
2022/10/13 13:48:59;;;;;;;12.32;6.32;;;;;;;;;;5052150;28;20102;-70
2022/10/13 13:51:24;;;;;;;9.88;5.95;;;;;;;;;;5052149;28;20029;-72
2022/10/13 13:53:50;;;;;;;9.80;6.10;;;;;;;;;;5053843;28;20584;-68
2022/10/13 13:56:17;;;;;;;9.95;6.43;;;;;;;;;;5053193;28;20496;-67
2022/10/13 13:58:43;;;;;;;8.88;6.47;;;;;;;;;;5056832;28;20025;-75
2022/10/13 14:01:09;;;;;;;12.68;6.43;;;;;;;;;;5056897;28;20101;-65
2022/10/13 14:03:35;;;;;;;9.90;6.20;;;;;;;;;;5057556;28;20041;-73
2022/10/13 14:06:01;;;;;;;9.02;6.13;;;;;;;;;;5058055;28;20021;-75
2022/10/13 14:08:29;;;;;;;13.18;6.05;;;;;;;;;;5059328;28;20025;-75
2022/10/13 14:10:54;;;;;;;13.13;6.28;;;;;;;;;;5058192;28;20029;-76
2022/10/13 14:13:20;;;;;;;8.27;6.22;;;;;;;;;;5055798;28;20170;-75
2022/10/13 14:15:45;;;;;;;8.50;6.18;;;;;;;;;;5062870;28;20395;-67
2022/10/13 14:18:12;;;;;;;12.05;6.57;;;;;;;;;;5055638;28;20029;-67
2022/10/13 14:20:40;;;;;;;10.18;6.00;;;;;;;;;;5055996;28;20024;-72
2022/10/13 14:23:06;;;;;;;7.72;5.90;;;;;;;;;;5052934;28;20037;-72
2022/10/13 14:25:32;;;;;;;8.88;6.03;;;;;;;;;;5054245;28;20025;-69
2022/10/13 14:27:57;;;;;;;10.82;6.20;;;;;;;;;;5054410;28;20116;-72
2022/10/13 14:30:22;;;;;;;15.98;5.75;;;;;;;;;;5053886;28;20433;-68
2022/10/13 14:32:48;;;;;;;9.50;5.93;;;;;;;;;;5048493;28;20104;-71
2022/10/13 14:35:13;;;;;;;8.68;5.40;;;;;;;;;;5033980;28;20457;-68
2022/10/13 14:37:39;;;;;;;10.77;6.15;;;;;;;;;;5033799;28;20068;-72
2022/10/13 14:40:06;;;;;;;10.65;6.10;;;;;;;;;;5035278;28;20029;-71
2022/10/13 14:42:31;;;;;;;7.22;5.88;;;;;;;;;;5036207;28;20431;-71
2022/10/13 14:44:56;;;;;;;7.32;5.88;;;;;;;;;;5035926;28;20044;-73
2022/10/13 14:47:22;;;;;;;9.18;6.03;;;;;;;;;;5036022;28;20067;-72
2022/10/13 14:49:47;;;;;;;14.55;6.10;;;;;;;;;;5034561;28;20393;-71
2022/10/13 14:52:13;;;;;;;9.10;6.13;;;;;;;;;;5035186;28;20033;-72
2022/10/13 14:54:38;;;;;;;8.35;6.05;;;;;;;;;;5035009;28;20037;-71
2022/10/13 14:57:06;;;;;;;10.90;6.25;;;;;;;;;;5043341;28;20060;-71
2022/10/13 14:59:32;;;;;;;8.90;6.30;;;;;;;;;;5056345;28;20036;-72